createdAt,value
2019-05-25T00:00:27.552Z,16.49
2019-05-25T00:01:27.307Z,16.47
2019-05-25T00:02:27.288Z,16.33
2019-05-25T00:03:27.543Z,16.36
2019-05-25T00:04:27.104Z,16.32
2019-05-25T00:05:27.051Z,16.28
2019-05-25T00:06:27.292Z,16.26
2019-05-25T00:07:27.301Z,16.26
2019-05-25T00:08:30.437Z,16.29
2019-05-25T00:09:27.333Z,16.21
2019-05-25T00:10:27.290Z,16.31
2019-05-25T00:11:27.032Z,16.36
2019-05-25T00:12:27.273Z,16.33
2019-05-25T00:13:27.600Z,16.31
2019-05-25T00:14:27.269Z,16.38
2019-05-25T00:15:27.282Z,16.36
2019-05-25T00:16:27.334Z,16.41
2019-05-25T00:17:27.267Z,16.36
2019-05-25T00:18:27.268Z,16.36
2019-05-25T00:19:30.136Z,16.33
2019-05-25T00:20:27.510Z,16.28
2019-05-25T00:21:27.271Z,16.26
2019-05-25T00:22:27.504Z,16.24
2019-05-25T00:23:27.506Z,16.26
2019-05-25T00:24:27.284Z,16.26
2019-05-25T00:25:27.552Z,16.32
2019-05-25T00:26:27.497Z,16.17
2019-05-25T00:27:27.005Z,16.15
2019-05-25T00:28:27.003Z,16.12
2019-05-25T00:29:27.267Z,16.17
2019-05-25T00:30:28.914Z,16.16
2019-05-25T00:31:27.499Z,16.1
2019-05-25T00:32:27.244Z,16.1
2019-05-25T00:33:27.267Z,16.1
2019-05-25T00:34:27.237Z,16.08
2019-05-25T00:35:27.488Z,16.04
2019-05-25T00:36:27.295Z,16.01
2019-05-25T00:37:26.993Z,15.9
2019-05-25T00:38:27.486Z,15.95
2019-05-25T00:39:27.248Z,15.84
2019-05-25T00:40:30.017Z,15.84
2019-05-25T00:41:33.525Z,15.83
2019-05-25T00:42:27.482Z,15.76
2019-05-25T00:43:26.972Z,15.77
2019-05-25T00:44:27.466Z,15.73
2019-05-25T00:45:27.273Z,15.64
2019-05-25T00:46:27.222Z,15.73
2019-05-25T00:47:27.221Z,15.61
2019-05-25T00:48:26.972Z,15.65
2019-05-25T00:49:27.277Z,15.68
2019-05-25T00:50:27.301Z,15.62
2019-05-25T00:51:33.489Z,15.72
2019-05-25T00:52:27.475Z,15.72
2019-05-25T00:53:27.456Z,15.76
2019-05-25T00:54:32.493Z,15.76
2019-05-25T00:55:27.500Z,15.72
2019-05-25T00:56:27.448Z,15.7
2019-05-25T00:57:27.454Z,15.65
2019-05-25T00:58:26.956Z,15.62
2019-05-25T00:59:27.441Z,15.65
2019-05-25T01:00:27.541Z,15.55
2019-05-25T01:01:29.367Z,15.49
2019-05-25T01:02:30.226Z,15.57
2019-05-25T01:03:27.439Z,15.55
2019-05-25T01:04:27.453Z,15.54
2019-05-25T01:05:27.567Z,15.59
2019-05-25T01:06:27.431Z,15.61
2019-05-25T01:07:27.184Z,15.67
2019-05-25T01:08:27.445Z,15.62
2019-05-25T01:09:26.928Z,15.67
2019-05-25T01:10:27.344Z,15.73
2019-05-25T01:11:27.175Z,15.76
2019-05-25T01:12:28.027Z,15.73
2019-05-25T01:13:30.490Z,15.75
2019-05-25T01:14:27.427Z,15.65
2019-05-25T01:15:27.229Z,15.76
2019-05-25T01:16:27.184Z,15.73
2019-05-25T01:17:27.149Z,15.61
2019-05-25T01:18:27.170Z,15.68
2019-05-25T01:19:27.421Z,15.62
2019-05-25T01:20:27.451Z,15.62
2019-05-25T01:21:27.160Z,15.68
2019-05-25T01:22:26.926Z,15.57
2019-05-25T01:23:30.473Z,15.52
2019-05-25T01:24:41.251Z,15.54
2019-05-25T01:25:27.448Z,15.55
2019-05-25T01:26:26.915Z,15.49
2019-05-25T01:27:27.162Z,15.47
2019-05-25T01:28:27.202Z,15.49
2019-05-25T01:29:27.398Z,15.43
2019-05-25T01:30:27.240Z,15.37
2019-05-25T01:31:27.139Z,15.4
2019-05-25T01:32:27.388Z,15.31
2019-05-25T01:33:27.369Z,15.4
2019-05-25T01:34:30.416Z,15.39
2019-05-25T01:35:27.182Z,15.39
2019-05-25T01:36:27.125Z,15.33
2019-05-25T01:37:27.136Z,15.36
2019-05-25T01:38:26.884Z,15.35
2019-05-25T01:39:27.166Z,15.39
2019-05-25T01:40:27.511Z,15.44
2019-05-25T01:41:27.368Z,15.57
2019-05-25T01:42:27.355Z,15.54
2019-05-25T01:43:27.375Z,15.61
2019-05-25T01:44:27.169Z,15.52
2019-05-25T01:45:33.471Z,15.59
2019-05-25T01:46:27.099Z,15.61
2019-05-25T01:47:27.350Z,15.61
2019-05-25T01:48:27.116Z,15.62
2019-05-25T01:49:27.367Z,15.76
2019-05-25T01:50:27.366Z,15.64
2019-05-25T01:51:27.138Z,15.64
2019-05-25T01:52:27.346Z,15.65
2019-05-25T01:53:26.842Z,15.58
2019-05-25T01:54:27.097Z,15.57
2019-05-25T01:55:28.512Z,15.76
2019-05-25T01:56:29.972Z,15.67
2019-05-25T01:57:27.341Z,15.65
2019-05-25T01:58:27.087Z,15.62
2019-05-25T01:59:27.097Z,15.58
2019-05-25T02:00:27.345Z,15.58
2019-05-25T02:01:26.880Z,15.58
2019-05-25T02:02:27.332Z,15.47
2019-05-25T02:03:27.341Z,15.46
2019-05-25T02:04:27.372Z,15.46
2019-05-25T02:05:27.091Z,15.36
2019-05-25T02:06:31.376Z,15.24
2019-05-25T02:07:27.052Z,15.14
2019-05-25T02:08:26.799Z,15.21
2019-05-25T02:09:27.289Z,15.17
2019-05-25T02:10:27.090Z,15.02
2019-05-25T02:11:26.852Z,15.03
2019-05-25T02:12:27.060Z,15.03
2019-05-25T02:13:27.087Z,14.99
2019-05-25T02:14:27.288Z,14.97
2019-05-25T02:15:26.786Z,14.89
2019-05-25T02:16:27.086Z,14.89
2019-05-25T02:17:30.058Z,15.02
2019-05-25T02:18:27.027Z,14.84
2019-05-25T02:19:27.268Z,14.91
2019-05-25T02:20:26.800Z,14.88
2019-05-25T02:21:27.077Z,14.81
2019-05-25T02:22:27.029Z,14.81
2019-05-25T02:23:27.272Z,14.81
2019-05-25T02:24:27.264Z,14.73
2019-05-25T02:25:27.244Z,14.72
2019-05-25T02:26:27.334Z,14.78
2019-05-25T02:27:27.258Z,14.81
2019-05-25T02:28:30.035Z,14.73
2019-05-25T02:29:27.018Z,14.72
2019-05-25T02:30:27.248Z,14.82
2019-05-25T02:31:27.296Z,14.86
2019-05-25T02:32:27.002Z,14.79
2019-05-25T02:33:26.988Z,14.73
2019-05-25T02:34:27.219Z,14.79
2019-05-25T02:35:27.224Z,14.73
2019-05-25T02:36:27.271Z,14.78
2019-05-25T02:37:26.975Z,14.66
2019-05-25T02:38:30.256Z,14.68
2019-05-25T02:39:33.515Z,14.69
2019-05-25T02:40:27.208Z,14.63
2019-05-25T02:41:27.251Z,14.58
2019-05-25T02:42:27.200Z,14.65
2019-05-25T02:43:26.965Z,14.59
2019-05-25T02:44:26.971Z,14.59
2019-05-25T02:45:26.974Z,14.58
2019-05-25T02:46:27.204Z,14.5
2019-05-25T02:47:26.970Z,14.53
2019-05-25T02:48:27.247Z,14.55
2019-05-25T02:49:32.976Z,14.55
2019-05-25T02:50:26.953Z,14.51
2019-05-25T02:51:26.946Z,14.51
2019-05-25T02:52:27.185Z,14.53
2019-05-25T02:53:26.918Z,14.41
2019-05-25T02:54:27.244Z,14.44
2019-05-25T02:55:38.968Z,14.37
2019-05-25T02:56:27.156Z,14.51
2019-05-25T02:57:27.160Z,14.5
2019-05-25T02:58:26.903Z,14.47
2019-05-25T02:59:26.915Z,14.47
2019-05-25T03:00:30.186Z,14.47
2019-05-25T03:01:27.146Z,14.41
2019-05-25T03:02:26.895Z,14.43
2019-05-25T03:03:27.128Z,14.44
2019-05-25T03:04:27.139Z,14.37
2019-05-25T03:05:27.131Z,14.41
2019-05-25T03:06:27.129Z,14.48
2019-05-25T03:07:26.890Z,14.44
2019-05-25T03:08:26.895Z,14.41
2019-05-25T03:09:27.123Z,14.48
2019-05-25T03:10:27.232Z,14.53
2019-05-25T03:11:30.163Z,14.58
2019-05-25T03:12:26.868Z,14.62
2019-05-25T03:13:27.111Z,14.59
2019-05-25T03:14:27.107Z,14.68
2019-05-25T03:15:26.876Z,14.62
2019-05-25T03:16:27.108Z,14.6
2019-05-25T03:17:27.145Z,14.66
2019-05-25T03:18:27.100Z,14.69
2019-05-25T03:19:26.860Z,14.72
2019-05-25T03:20:27.103Z,14.77
2019-05-25T03:21:30.136Z,14.66
2019-05-25T03:22:27.077Z,14.78
2019-05-25T03:23:26.827Z,14.65
2019-05-25T03:24:26.832Z,14.65
2019-05-25T03:25:27.086Z,14.65
2019-05-25T03:26:26.831Z,14.62
2019-05-25T03:27:27.169Z,14.78
2019-05-25T03:28:27.068Z,14.72
2019-05-25T03:29:27.062Z,14.78
2019-05-25T03:30:27.062Z,14.66
2019-05-25T03:31:26.835Z,14.73
2019-05-25T03:32:29.845Z,14.6
2019-05-25T03:33:27.071Z,14.62
2019-05-25T03:34:26.811Z,14.62
2019-05-25T03:35:26.852Z,14.6
2019-05-25T03:36:27.193Z,14.58
2019-05-25T03:37:27.078Z,14.68
2019-05-25T03:38:27.044Z,14.68
2019-05-25T03:39:27.058Z,14.66
2019-05-25T03:40:27.048Z,14.66
2019-05-25T03:41:26.785Z,14.68
2019-05-25T03:42:26.833Z,14.69
2019-05-25T03:43:33.047Z,14.72
2019-05-25T03:44:27.048Z,14.73
2019-05-25T03:45:26.786Z,14.7
2019-05-25T03:46:27.064Z,14.89
2019-05-25T03:47:27.060Z,14.92
2019-05-25T03:48:26.762Z,14.97
2019-05-25T03:49:27.003Z,14.92
2019-05-25T03:50:27.056Z,14.97
2019-05-25T03:51:27.040Z,15.04
2019-05-25T03:52:26.803Z,14.97
2019-05-25T03:53:28.461Z,15.04
2019-05-25T03:54:29.784Z,14.99
2019-05-25T03:55:26.773Z,14.91
2019-05-25T03:56:26.994Z,14.97
2019-05-25T03:57:27.058Z,14.88
2019-05-25T03:58:27.013Z,14.92
2019-05-25T03:59:26.989Z,14.92
2019-05-25T04:00:26.990Z,14.86
2019-05-25T04:01:26.491Z,14.7
2019-05-25T04:02:26.993Z,14.72
2019-05-25T04:03:26.723Z,14.66
2019-05-25T04:04:29.762Z,14.68
2019-05-25T04:05:26.487Z,14.6
2019-05-25T04:06:26.974Z,14.59
2019-05-25T04:07:26.980Z,14.59
2019-05-25T04:08:26.968Z,14.63
2019-05-25T04:09:26.743Z,14.66
2019-05-25T04:10:26.716Z,14.68
2019-05-25T04:11:26.956Z,14.78
2019-05-25T04:12:27.001Z,14.78
2019-05-25T04:13:26.961Z,14.89
2019-05-25T04:14:26.750Z,14.92
2019-05-25T04:15:29.771Z,15
2019-05-25T04:16:26.954Z,14.96
2019-05-25T04:17:26.456Z,15
2019-05-25T04:18:26.952Z,14.99
2019-05-25T04:19:26.949Z,15.07
2019-05-25T04:20:26.942Z,15.06
2019-05-25T04:21:26.685Z,14.99
2019-05-25T04:22:26.682Z,15.04
2019-05-25T04:23:26.698Z,15.03
2019-05-25T04:24:26.455Z,15.04
2019-05-25T04:25:27.187Z,15.19
2019-05-25T04:26:30.615Z,15.25
2019-05-25T04:27:26.770Z,15.15
2019-05-25T04:28:26.679Z,15.28
2019-05-25T04:29:26.912Z,15.35
2019-05-25T04:30:26.734Z,15.4
2019-05-25T04:31:26.704Z,15.36
2019-05-25T04:32:26.955Z,15.37
2019-05-25T04:33:26.927Z,15.39
2019-05-25T04:34:26.439Z,15.47
2019-05-25T04:35:26.659Z,15.51
2019-05-25T04:36:29.684Z,15.52
2019-05-25T04:37:32.967Z,15.57
2019-05-25T04:38:26.664Z,15.68
2019-05-25T04:39:26.898Z,15.54
2019-05-25T04:40:28.009Z,15.58
2019-05-25T04:41:26.886Z,15.65
2019-05-25T04:42:26.936Z,15.7
2019-05-25T04:43:26.411Z,15.61
2019-05-25T04:44:26.658Z,15.72
2019-05-25T04:45:26.897Z,15.72
2019-05-25T04:46:26.882Z,15.82
2019-05-25T04:47:33.155Z,15.82
2019-05-25T04:48:26.875Z,15.88
2019-05-25T04:49:26.870Z,15.94
2019-05-25T04:50:26.874Z,16
2019-05-25T04:51:26.668Z,16.02
2019-05-25T04:52:26.867Z,15.88
2019-05-25T04:53:26.863Z,15.84
2019-05-25T04:54:26.384Z,15.8
2019-05-25T04:55:26.858Z,15.82
2019-05-25T04:56:42.783Z,15.88
2019-05-25T04:57:26.630Z,15.94
2019-05-25T04:58:29.660Z,15.92
2019-05-25T04:59:26.852Z,15.97
2019-05-25T05:00:26.876Z,15.9
2019-05-25T05:01:27.544Z,15.95
2019-05-25T05:02:26.630Z,16.08
2019-05-25T05:03:26.865Z,16.04
2019-05-25T05:04:26.875Z,16.08
2019-05-25T05:05:26.612Z,16.08
2019-05-25T05:06:26.857Z,16.05
2019-05-25T05:07:26.848Z,16.01
2019-05-25T05:08:28.024Z,15.84
2019-05-25T05:09:29.883Z,15.9
2019-05-25T05:10:26.853Z,15.9
2019-05-25T05:11:26.840Z,15.91
2019-05-25T05:12:26.624Z,16
2019-05-25T05:13:26.597Z,16
2019-05-25T05:14:26.663Z,16.04
2019-05-25T05:15:26.836Z,16.09
2019-05-25T05:16:26.831Z,16.12
2019-05-25T05:17:26.359Z,16.32
2019-05-25T05:18:26.894Z,16.41
2019-05-25T05:19:29.620Z,16.51
2019-05-25T05:20:26.577Z,16.56
2019-05-25T05:21:26.342Z,16.69
2019-05-25T05:22:26.840Z,16.76
2019-05-25T05:23:26.603Z,16.72
2019-05-25T05:24:26.603Z,16.69
2019-05-25T05:25:26.847Z,16.71
2019-05-25T05:26:26.579Z,16.65
2019-05-25T05:27:26.575Z,16.65
2019-05-25T05:28:26.638Z,16.58
2019-05-25T05:29:26.631Z,16.65
2019-05-25T05:30:29.848Z,16.68
2019-05-25T05:31:28.326Z,16.66
2019-05-25T05:32:32.291Z,16.65
2019-05-25T05:33:26.609Z,16.69
2019-05-25T05:34:26.826Z,16.74
2019-05-25T05:35:26.842Z,16.81
2019-05-25T05:36:26.644Z,16.72
2019-05-25T05:37:26.338Z,16.75
2019-05-25T05:38:26.571Z,16.84
2019-05-25T05:39:26.575Z,16.76
2019-05-25T05:40:26.579Z,16.81
2019-05-25T05:41:33.464Z,16.81
2019-05-25T05:42:26.589Z,16.83
2019-05-25T05:43:26.629Z,16.96
2019-05-25T05:44:26.587Z,16.83
2019-05-25T05:45:26.585Z,16.89
2019-05-25T05:46:26.576Z,16.81
2019-05-25T05:47:26.576Z,16.83
2019-05-25T05:48:26.876Z,16.81
2019-05-25T05:49:26.570Z,16.81
2019-05-25T05:50:26.572Z,16.87
2019-05-25T05:51:27.729Z,16.86
2019-05-25T05:52:29.631Z,16.83
2019-05-25T05:53:26.605Z,16.91
2019-05-25T05:54:26.807Z,17.01
2019-05-25T05:55:26.327Z,17.15
2019-05-25T05:56:26.583Z,17.31
2019-05-25T05:57:26.572Z,17.41
2019-05-25T05:58:26.614Z,17.44
2019-05-25T05:59:26.567Z,17.39
2019-05-25T06:00:26.575Z,17.48
2019-05-25T06:01:26.817Z,17.51
2019-05-25T06:02:29.637Z,17.6
2019-05-25T06:03:26.591Z,17.63
2019-05-25T06:04:26.803Z,17.63
2019-05-25T06:05:26.602Z,17.59
2019-05-25T06:06:26.798Z,17.64
2019-05-25T06:07:29.893Z,17.59
2019-05-25T06:08:26.627Z,17.6
2019-05-25T06:09:26.845Z,17.51
2019-05-25T06:10:26.584Z,17.51
2019-05-25T06:11:26.590Z,17.68
2019-05-25T06:12:26.588Z,17.72
2019-05-25T06:13:29.635Z,17.79
2019-05-25T06:14:26.798Z,17.92
2019-05-25T06:15:26.610Z,18.29
2019-05-25T06:16:26.319Z,18.55
2019-05-25T06:17:26.811Z,19.08
2019-05-25T06:18:26.596Z,19.54
2019-05-25T06:19:26.569Z,20.04
2019-05-25T06:20:26.573Z,20.55
2019-05-25T06:21:26.835Z,20.95
2019-05-25T06:22:26.824Z,21.29
2019-05-25T06:23:26.604Z,21.73
2019-05-25T06:24:28.406Z,21.92
2019-05-25T06:25:26.723Z,22.33
2019-05-25T06:26:26.326Z,22.6
2019-05-25T06:27:32.125Z,22.72
2019-05-25T06:28:27.381Z,22.81
2019-05-25T06:29:26.587Z,22.88
2019-05-25T06:30:26.817Z,22.87
2019-05-25T06:31:26.341Z,22.75
2019-05-25T06:32:26.600Z,22.73
2019-05-25T06:33:26.364Z,22.57
2019-05-25T06:34:29.639Z,22.53
2019-05-25T06:35:26.347Z,22.5
2019-05-25T06:36:26.901Z,22.45
2019-05-25T06:37:26.611Z,22.43
2019-05-25T06:38:26.625Z,22.54
2019-05-25T06:39:26.850Z,22.81
2019-05-25T06:40:26.864Z,23.13
2019-05-25T06:41:26.637Z,23.13
2019-05-25T06:42:26.645Z,23.54
2019-05-25T06:43:26.918Z,23.81
2019-05-25T06:44:26.893Z,23.93
2019-05-25T06:45:32.904Z,24.2
2019-05-25T06:46:26.442Z,24.51
2019-05-25T06:47:26.883Z,24.74
2019-05-25T06:48:26.896Z,24.85
2019-05-25T06:49:26.886Z,24.96
2019-05-25T06:50:27.172Z,25.07
2019-05-25T06:51:26.699Z,25.04
2019-05-25T06:52:26.709Z,25.03
2019-05-25T06:53:26.663Z,25.22
2019-05-25T06:54:26.434Z,25.54
2019-05-25T06:55:26.710Z,25.6
2019-05-25T06:56:29.965Z,25.66
2019-05-25T06:57:40.290Z,25.75
2019-05-25T06:58:26.536Z,25.95
2019-05-25T06:59:26.476Z,26.23
2019-05-25T07:00:26.708Z,26.45
2019-05-25T07:01:30.385Z,26.73
2019-05-25T07:02:27.556Z,26.95
2019-05-25T07:03:26.761Z,26.95
2019-05-25T07:04:26.749Z,27.05
2019-05-25T07:05:27.055Z,27.07
2019-05-25T07:06:26.748Z,27.27
2019-05-25T07:07:30.068Z,27.3
2019-05-25T07:08:27.005Z,27.32
2019-05-25T07:09:26.778Z,27.35
2019-05-25T07:10:26.768Z,27.21
2019-05-25T07:11:27.055Z,27.32
2019-05-25T07:12:26.780Z,27.64
2019-05-25T07:13:28.541Z,27.83
2019-05-25T07:14:27.055Z,28.01
2019-05-25T07:15:26.826Z,27.85
2019-05-25T07:16:27.067Z,27.54
2019-05-25T07:17:29.861Z,27.47
2019-05-25T07:18:35.513Z,27.39
2019-05-25T07:19:26.865Z,27.14
2019-05-25T07:20:26.838Z,27.26
2019-05-25T07:21:27.108Z,27.3
2019-05-25T07:22:26.852Z,27.08
2019-05-25T07:23:26.859Z,27.02
2019-05-25T07:24:26.634Z,27.03
2019-05-25T07:25:27.119Z,27.17
2019-05-25T07:26:26.884Z,27.51
2019-05-25T07:27:26.887Z,27.63
2019-05-25T07:28:33.405Z,27.64
2019-05-25T07:29:27.166Z,27.54
2019-05-25T07:30:26.666Z,27.7
2019-05-25T07:31:26.913Z,27.77
2019-05-25T07:32:26.941Z,27.87
2019-05-25T07:33:26.928Z,28.19
2019-05-25T07:34:27.207Z,28.15
2019-05-25T07:35:26.976Z,28.2
2019-05-25T07:36:26.943Z,28.15
2019-05-25T07:37:26.966Z,28.25
2019-05-25T07:38:26.962Z,28.32
2019-05-25T07:39:30.048Z,28.52
2019-05-25T07:40:26.739Z,28.67
2019-05-25T07:41:26.986Z,28.7
2019-05-25T07:42:27.006Z,28.76
2019-05-25T07:43:27.270Z,28.97
2019-05-25T07:44:27.010Z,28.89
2019-05-25T07:45:27.034Z,28.69
2019-05-25T07:46:27.019Z,28.39
2019-05-25T07:47:27.035Z,28.11
2019-05-25T07:48:27.299Z,27.78
2019-05-25T07:49:27.695Z,27.37
2019-05-25T07:50:30.403Z,27.11
2019-05-25T07:51:26.802Z,26.96
2019-05-25T07:52:27.075Z,27.18
2019-05-25T07:53:27.071Z,27.18
2019-05-25T07:54:27.328Z,27.3
2019-05-25T07:55:26.841Z,27.54
2019-05-25T07:56:27.106Z,27.89
2019-05-25T07:57:31.048Z,28.32
2019-05-25T07:58:27.103Z,28.57
2019-05-25T07:59:27.375Z,28.81
2019-05-25T08:00:30.178Z,29.02
2019-05-25T08:01:33.653Z,28.98
2019-05-25T08:02:26.891Z,28.62
2019-05-25T08:03:27.403Z,28.2
2019-05-25T08:04:26.902Z,27.7
2019-05-25T08:05:27.163Z,27.1
2019-05-25T08:06:27.414Z,26.52
2019-05-25T08:07:27.433Z,25.87
2019-05-25T08:08:27.181Z,25.69
2019-05-25T08:09:27.192Z,25.38
2019-05-25T08:10:27.190Z,25.31
2019-05-25T08:11:28.388Z,25.23
2019-05-25T08:12:26.968Z,25.65
2019-05-25T08:13:27.471Z,25.78
2019-05-25T08:14:27.492Z,25.77
2019-05-25T08:15:27.499Z,25.84
2019-05-25T08:16:27.023Z,25.96
2019-05-25T08:17:27.499Z,26.1
2019-05-25T08:18:27.003Z,26.36
2019-05-25T08:19:26.992Z,26.71
2019-05-25T08:20:27.259Z,27
2019-05-25T08:21:27.273Z,27.26
2019-05-25T08:22:30.365Z,27.86
2019-05-25T08:23:27.029Z,28.3
2019-05-25T08:24:27.309Z,28.66
2019-05-25T08:25:27.051Z,28.96
2019-05-25T08:26:27.557Z,28.74
2019-05-25T08:27:27.302Z,28.25
2019-05-25T08:28:38.160Z,28.01
2019-05-25T08:29:27.570Z,28.08
2019-05-25T08:30:27.331Z,28.27
2019-05-25T08:31:27.330Z,28.59
2019-05-25T08:32:27.979Z,28.57
2019-05-25T08:33:30.376Z,28.38
2019-05-25T08:34:27.114Z,28.29
2019-05-25T08:35:27.615Z,28.08
2019-05-25T08:36:29.715Z,28.27
2019-05-25T08:37:27.364Z,28.64
2019-05-25T08:38:27.644Z,28.97
2019-05-25T08:39:27.372Z,29.41
2019-05-25T08:40:27.639Z,29.45
2019-05-25T08:41:27.642Z,29.32
2019-05-25T08:42:27.692Z,29.02
2019-05-25T08:43:30.443Z,28.72
2019-05-25T08:44:27.718Z,28.56
2019-05-25T08:45:30.738Z,28.47
2019-05-25T08:46:27.679Z,28.1
2019-05-25T08:47:27.682Z,27.8
2019-05-25T08:48:27.696Z,27.55
2019-05-25T08:49:27.794Z,27.4
2019-05-25T08:50:42.563Z,27.36
2019-05-25T08:51:27.468Z,27.22
2019-05-25T08:52:27.494Z,27.02
2019-05-25T08:53:48.764Z,26.84
2019-05-25T08:54:29.178Z,26.77
2019-05-25T08:55:27.749Z,26.6
2019-05-25T08:56:27.760Z,26.48
2019-05-25T08:57:27.761Z,26.41
2019-05-25T08:58:27.539Z,26.34
2019-05-25T08:59:27.749Z,25.9
2019-05-25T09:00:27.768Z,25.77
2019-05-25T09:01:27.570Z,25.7
2019-05-25T09:02:27.787Z,25.7
2019-05-25T09:03:27.572Z,25.44
2019-05-25T09:04:30.326Z,24.88
2019-05-25T09:05:30.855Z,24.5
2019-05-25T09:06:27.827Z,24.05
2019-05-25T09:07:27.830Z,23.73
2019-05-25T09:08:27.852Z,23.51
2019-05-25T09:09:27.646Z,23.47
2019-05-25T09:10:27.359Z,23.44
2019-05-25T09:11:27.593Z,23.55
2019-05-25T09:12:27.870Z,23.51
2019-05-25T09:13:27.376Z,23.5
2019-05-25T09:14:27.472Z,23.61
2019-05-25T09:15:29.054Z,23.71
2019-05-25T09:16:30.939Z,23.69
2019-05-25T09:17:27.886Z,23.69
2019-05-25T09:18:27.403Z,23.69
2019-05-25T09:19:27.639Z,23.68
2019-05-25T09:20:27.656Z,23.68
2019-05-25T09:21:27.673Z,23.68
2019-05-25T09:22:27.671Z,23.61
2019-05-25T09:23:27.932Z,23.56
2019-05-25T09:24:27.935Z,23.55
2019-05-25T09:25:27.691Z,23.58
2019-05-25T09:26:30.982Z,23.68
2019-05-25T09:27:27.685Z,23.8
2019-05-25T09:28:27.675Z,23.95
2019-05-25T09:29:27.998Z,24.13
2019-05-25T09:30:27.940Z,24.13
2019-05-25T09:31:27.968Z,24.14
2019-05-25T09:32:28.017Z,24.11
2019-05-25T09:33:27.957Z,24.02
2019-05-25T09:34:27.790Z,24.06
2019-05-25T09:35:27.853Z,23.95
2019-05-25T09:36:27.705Z,23.74
2019-05-25T09:37:31.003Z,23.65
2019-05-25T09:38:27.961Z,23.66
2019-05-25T09:39:27.709Z,23.59
2019-05-25T09:40:27.732Z,23.48
2019-05-25T09:41:27.742Z,23.46
2019-05-25T09:42:27.500Z,23.63
2019-05-25T09:43:27.981Z,23.59
2019-05-25T09:44:28.033Z,23.59
2019-05-25T09:45:27.499Z,23.63
2019-05-25T09:46:27.759Z,23.51
2019-05-25T09:47:27.745Z,23.4
2019-05-25T09:48:37.436Z,23.32
2019-05-25T09:49:28.009Z,23.31
2019-05-25T09:50:28.040Z,23.37
2019-05-25T09:51:27.760Z,23.56
2019-05-25T09:52:27.781Z,23.68
2019-05-25T09:53:28.011Z,23.96
2019-05-25T09:54:27.769Z,24.17
2019-05-25T09:55:27.792Z,24.32
2019-05-25T09:56:27.791Z,24.33
2019-05-25T09:57:27.792Z,24.35
2019-05-25T09:58:29.450Z,24.03
2019-05-25T09:59:31.160Z,23.88
2019-05-25T10:00:28.047Z,23.81
2019-05-25T10:01:28.050Z,23.69
2019-05-25T10:02:28.067Z,23.65
2019-05-25T10:03:27.806Z,23.77
2019-05-25T10:04:28.110Z,23.8
2019-05-25T10:05:28.072Z,23.69
2019-05-25T10:06:28.083Z,23.66
2019-05-25T10:07:28.080Z,23.55
2019-05-25T10:08:28.079Z,23.63
2019-05-25T10:09:31.928Z,23.55
2019-05-25T10:10:27.592Z,23.41
2019-05-25T10:11:28.173Z,23.5
2019-05-25T10:12:28.173Z,23.51
2019-05-25T10:13:27.841Z,23.51
2019-05-25T10:14:28.152Z,23.46
2019-05-25T10:15:30.895Z,23.46
2019-05-25T10:16:27.869Z,23.37
2019-05-25T10:17:27.866Z,23.15
2019-05-25T10:18:27.873Z,23.13
2019-05-25T10:19:28.160Z,23.15
2019-05-25T10:20:30.964Z,23.09
2019-05-25T10:21:27.879Z,23.18
2019-05-25T10:22:28.120Z,23.2
2019-05-25T10:23:27.872Z,23.31
2019-05-25T10:24:28.176Z,23.36
2019-05-25T10:25:28.162Z,23.28
2019-05-25T10:26:28.139Z,23.32
2019-05-25T10:27:28.003Z,23.39
2019-05-25T10:28:27.666Z,23.34
2019-05-25T10:29:41.622Z,23.24
2019-05-25T10:30:27.917Z,23.21
2019-05-25T10:31:29.336Z,23.2
2019-05-25T10:32:27.907Z,22.99
2019-05-25T10:33:27.905Z,22.83
2019-05-25T10:34:27.926Z,22.76
2019-05-25T10:35:27.978Z,22.66
2019-05-25T10:36:28.175Z,22.45
2019-05-25T10:37:27.917Z,22.32
2019-05-25T10:38:28.175Z,22.36
2019-05-25T10:39:28.174Z,22.28
2019-05-25T10:40:27.925Z,22.26
2019-05-25T10:41:29.376Z,22.2
2019-05-25T10:42:30.978Z,22.14
2019-05-25T10:43:27.993Z,22.13
2019-05-25T10:44:28.205Z,22.17
2019-05-25T10:45:28.290Z,22.11
2019-05-25T10:46:28.251Z,22.14
2019-05-25T10:47:28.269Z,22.14
2019-05-25T10:48:28.338Z,22.13
2019-05-25T10:49:28.195Z,22.04
2019-05-25T10:50:28.264Z,22.1
2019-05-25T10:51:28.208Z,22.1
2019-05-25T10:52:31.241Z,22.07
2019-05-25T10:53:27.957Z,22.07
2019-05-25T10:54:27.714Z,22.08
2019-05-25T10:55:28.015Z,22
2019-05-25T10:56:28.235Z,21.99
2019-05-25T10:57:27.991Z,21.93
2019-05-25T10:58:27.969Z,21.8
2019-05-25T10:59:28.218Z,21.82
2019-05-25T11:00:28.037Z,21.72
2019-05-25T11:01:28.009Z,21.82
2019-05-25T11:02:28.249Z,21.79
2019-05-25T11:03:31.026Z,21.82
2019-05-25T11:04:28.006Z,21.83
2019-05-25T11:05:28.035Z,21.75
2019-05-25T11:06:27.991Z,21.73
2019-05-25T11:07:28.257Z,21.72
2019-05-25T11:08:28.264Z,21.66
2019-05-25T11:09:27.751Z,21.58
2019-05-25T11:10:28.295Z,21.57
2019-05-25T11:11:28.004Z,21.52
2019-05-25T11:12:30.836Z,21.46
2019-05-25T11:13:28.449Z,21.43
2019-05-25T11:14:31.328Z,21.25
2019-05-25T11:15:28.355Z,21.05
2019-05-25T11:16:28.094Z,20.85
2019-05-25T11:17:28.025Z,20.66
2019-05-25T11:18:28.052Z,20.44
2019-05-25T11:19:28.769Z,20.39
2019-05-25T11:20:28.026Z,20.34
2019-05-25T11:21:28.278Z,20.28
2019-05-25T11:22:28.274Z,20.16
2019-05-25T11:23:28.068Z,20.19
2019-05-25T11:24:31.306Z,20.21
2019-05-25T11:25:34.594Z,20.25
2019-05-25T11:26:27.771Z,20.25
2019-05-25T11:27:28.025Z,20.29
2019-05-25T11:28:28.280Z,20.36
2019-05-25T11:29:27.789Z,20.55
2019-05-25T11:30:28.075Z,20.59
2019-05-25T11:31:28.297Z,20.59
2019-05-25T11:32:27.776Z,20.8
2019-05-25T11:33:27.782Z,20.82
2019-05-25T11:34:28.286Z,20.92
2019-05-25T11:35:32.339Z,21.07
2019-05-25T11:36:28.276Z,21.18
2019-05-25T11:37:28.044Z,21.24
2019-05-25T11:38:28.302Z,21.39
2019-05-25T11:39:28.039Z,21.45
2019-05-25T11:40:28.304Z,21.6
2019-05-25T11:41:27.812Z,21.73
2019-05-25T11:42:27.812Z,21.99
2019-05-25T11:43:28.319Z,22.1
2019-05-25T11:44:28.300Z,22.28
2019-05-25T11:45:28.109Z,22.45
2019-05-25T11:46:31.095Z,22.63
2019-05-25T11:47:28.340Z,22.84
2019-05-25T11:48:28.078Z,22.99
2019-05-25T11:49:28.318Z,23.18
2019-05-25T11:50:28.323Z,23.48
2019-05-25T11:51:27.840Z,23.63
2019-05-25T11:52:28.112Z,23.77
2019-05-25T11:53:27.837Z,23.93
2019-05-25T11:54:28.322Z,24.06
2019-05-25T11:55:27.835Z,24.1
2019-05-25T11:56:28.724Z,24.3
2019-05-25T11:57:31.379Z,24.53
2019-05-25T11:58:28.093Z,24.65
2019-05-25T11:59:28.096Z,24.74
2019-05-25T12:00:30.469Z,24.91
2019-05-25T12:01:28.111Z,24.88
2019-05-25T12:02:28.107Z,24.84
2019-05-25T12:03:27.859Z,24.74
2019-05-25T12:04:27.866Z,24.78
2019-05-25T12:05:28.134Z,24.8
2019-05-25T12:06:28.135Z,24.81
2019-05-25T12:07:31.163Z,24.81
2019-05-25T12:08:34.709Z,24.6
2019-05-25T12:09:28.361Z,24.5
2019-05-25T12:10:28.182Z,24.51
2019-05-25T12:11:28.387Z,24.4
2019-05-25T12:12:28.173Z,24.32
2019-05-25T12:13:27.914Z,24.18
2019-05-25T12:14:28.165Z,24.1
2019-05-25T12:15:28.218Z,23.95
2019-05-25T12:16:28.418Z,23.71
2019-05-25T12:17:28.457Z,23.54
2019-05-25T12:18:30.015Z,23.47
2019-05-25T12:19:28.442Z,23.48
2019-05-25T12:20:28.492Z,23.46
2019-05-25T12:21:27.940Z,23.46
2019-05-25T12:22:28.438Z,23.41
2019-05-25T12:23:28.452Z,23.5
2019-05-25T12:24:28.479Z,23.46
2019-05-25T12:25:27.975Z,23.4
2019-05-25T12:26:28.449Z,23.36
2019-05-25T12:27:28.475Z,23.37
2019-05-25T12:28:28.467Z,23.39
2019-05-25T12:29:31.511Z,23.39
2019-05-25T12:30:44.546Z,23.46
2019-05-25T12:31:27.985Z,23.44
2019-05-25T12:32:28.495Z,23.69
2019-05-25T12:33:28.278Z,23.76
2019-05-25T12:34:27.989Z,23.81
2019-05-25T12:35:28.237Z,23.78
2019-05-25T12:36:28.351Z,23.78
2019-05-25T12:37:28.516Z,23.93
2019-05-25T12:38:28.499Z,24.03
2019-05-25T12:39:31.598Z,24.06
2019-05-25T12:40:31.570Z,24.16
2019-05-25T12:41:28.332Z,24.48
2019-05-25T12:42:28.270Z,24.6
2019-05-25T12:43:28.302Z,24.63
2019-05-25T12:44:28.550Z,24.78
2019-05-25T12:45:28.290Z,24.74
2019-05-25T12:46:28.605Z,24.65
2019-05-25T12:47:28.525Z,24.43
2019-05-25T12:48:28.543Z,24.33
2019-05-25T12:49:28.050Z,24.1
2019-05-25T12:50:31.307Z,24.02
2019-05-25T12:51:28.537Z,23.98
2019-05-25T12:52:28.299Z,23.95
2019-05-25T12:53:28.336Z,23.92
2019-05-25T12:54:28.300Z,23.99
2019-05-25T12:55:28.050Z,23.95